createdAt,value
2024-03-09T00:00:29.298Z,47.73
2024-03-09T00:03:01.367Z,48.41
2024-03-09T00:05:29.346Z,48.63
2024-03-09T00:07:58.529Z,48.55
2024-03-09T00:10:28.270Z,47.84
2024-03-09T00:12:56.447Z,47.33
2024-03-09T00:15:25.340Z,48.22
2024-03-09T00:17:57.376Z,48.58
2024-03-09T00:20:29.150Z,48.55
2024-03-09T00:22:59.407Z,49.61
2024-03-09T00:25:30.289Z,48.46
2024-03-09T00:27:58.744Z,49.70
2024-03-09T00:30:33.049Z,49.50
2024-03-09T00:33:01.586Z,49.67
2024-03-09T00:35:30.694Z,49.04
2024-03-09T00:37:59.509Z,49.32
2024-03-09T00:40:29.819Z,49.61
2024-03-09T00:42:58.696Z,48.38
2024-03-09T00:45:26.883Z,49.82
2024-03-09T00:47:53.746Z,49.97
2024-03-09T00:50:22.626Z,50.90
2024-03-09T00:52:49.725Z,49.67
2024-03-09T00:55:16.896Z,49.04
2024-03-09T00:57:52.755Z,49.81
2024-03-09T01:00:21.221Z,50.42
2024-03-09T01:02:52.241Z,50.15
2024-03-09T01:05:21.475Z,50.11
2024-03-09T01:07:50.981Z,50.14
2024-03-09T01:10:17.782Z,50.96
2024-03-09T01:12:44.823Z,51.17
2024-03-09T01:15:11.799Z,51.40
2024-03-09T01:17:39.550Z,50.50
2024-03-09T01:20:09.077Z,49.62
2024-03-09T01:22:37.570Z,50.66
2024-03-09T01:25:05.223Z,51.34
2024-03-09T01:27:31.930Z,50.33
2024-03-09T01:30:02.047Z,50.20
2024-03-09T01:32:29.700Z,50.82
2024-03-09T01:34:57.748Z,50.47
2024-03-09T01:37:25.300Z,50.11
2024-03-09T01:39:52.706Z,49.05
2024-03-09T01:42:20.270Z,50.23
2024-03-09T01:44:49.110Z,50.52
2024-03-09T01:47:20.090Z,50.35
2024-03-09T01:49:47.280Z,50.26
2024-03-09T01:52:15.095Z,49.94
2024-03-09T01:54:43.639Z,49.86
2024-03-09T01:57:11.002Z,50.39
2024-03-09T01:59:40.175Z,50.18
2024-03-09T02:02:07.796Z,50.54
2024-03-09T02:04:36.056Z,50.05
2024-03-09T02:07:03.651Z,50.56
2024-03-09T02:09:30.561Z,51.00
2024-03-09T02:12:02.140Z,50.66
2024-03-09T02:14:29.580Z,50.08
2024-03-09T02:16:56.531Z,49.78
2024-03-09T02:19:23.267Z,50.89
2024-03-09T02:21:50.114Z,50.42
2024-03-09T02:24:21.959Z,51.08
2024-03-09T02:26:51.067Z,50.41
2024-03-09T02:29:20.049Z,50.41
2024-03-09T02:31:47.094Z,51.20
2024-03-09T02:34:13.865Z,51.04
2024-03-09T02:36:40.549Z,51.11
2024-03-09T02:39:10.815Z,51.74
2024-03-09T02:41:38.255Z,49.39
2024-03-09T02:44:05.907Z,49.50
2024-03-09T02:46:32.741Z,49.82
2024-03-09T02:48:59.413Z,49.34
2024-03-09T02:51:26.858Z,50.21
2024-03-09T02:53:53.973Z,50.33
2024-03-09T02:56:21.914Z,49.89
2024-03-09T02:58:49.986Z,49.87
2024-03-09T03:01:21.706Z,50.13
2024-03-09T03:03:58.297Z,50.62
2024-03-09T03:06:29.336Z,49.10
2024-03-09T03:08:58.672Z,50.16
2024-03-09T03:11:25.661Z,51.01
2024-03-09T03:13:53.883Z,49.36
2024-03-09T03:16:32.998Z,49.68
2024-03-09T03:19:00.964Z,49.05
2024-03-09T03:21:28.604Z,50.92
2024-03-09T03:23:55.877Z,49.63
2024-03-09T03:26:22.791Z,48.66
2024-03-09T03:28:51.875Z,49.68
2024-03-09T03:31:21.107Z,50.08
2024-03-09T03:33:50.610Z,49.27
2024-03-09T03:36:20.523Z,49.10
2024-03-09T03:38:48.751Z,49.23
2024-03-09T03:41:18.258Z,49.18
2024-03-09T03:43:46.164Z,49.45
2024-03-09T03:46:15.377Z,49.85
2024-03-09T03:48:46.620Z,50.54
2024-03-09T03:51:15.246Z,49.21
2024-03-09T03:53:43.438Z,49.66
2024-03-09T03:56:11.179Z,49.28
2024-03-09T03:58:39.110Z,49.75
2024-03-09T04:01:07.451Z,50.14
2024-03-09T04:03:38.265Z,49.18
2024-03-09T04:06:08.520Z,48.76
2024-03-09T04:08:36.431Z,48.09
2024-03-09T04:11:07.633Z,48.41
2024-03-09T04:13:34.578Z,48.26
2024-03-09T04:16:04.801Z,47.60
2024-03-09T04:18:31.944Z,48.50
2024-03-09T04:20:59.128Z,47.81
2024-03-09T04:23:26.062Z,48.72
2024-03-09T04:25:54.251Z,48.82
2024-03-09T04:28:29.003Z,48.01
2024-03-09T04:30:58.420Z,48.21
2024-03-09T04:33:25.819Z,48.97
2024-03-09T04:35:54.107Z,49.12
2024-03-09T04:38:21.932Z,48.24
2024-03-09T04:40:50.917Z,47.72
2024-03-09T04:43:19.439Z,47.98
2024-03-09T04:45:47.152Z,48.61
2024-03-09T04:48:15.288Z,48.23
2024-03-09T04:50:47.971Z,47.42
2024-03-09T04:53:16.018Z,46.73
2024-03-09T04:55:49.121Z,47.75
2024-03-09T04:58:16.797Z,47.63
2024-03-09T05:00:44.781Z,47.54
2024-03-09T05:03:15.759Z,48.07
2024-03-09T05:05:43.840Z,46.95
2024-03-09T05:08:10.773Z,47.47
2024-03-09T05:10:41.159Z,46.83
2024-03-09T05:13:09.139Z,48.58
2024-03-09T05:15:37.507Z,46.89
2024-03-09T05:18:09.584Z,46.77
2024-03-09T05:20:37.024Z,48.28
2024-03-09T05:23:05.416Z,48.94
2024-03-09T05:25:32.598Z,47.77
2024-03-09T05:27:59.959Z,47.50
2024-03-09T05:30:30.740Z,48.23
2024-03-09T05:33:00.220Z,47.35
2024-03-09T05:35:29.548Z,47.43
2024-03-09T05:38:00.320Z,46.89
2024-03-09T05:40:30.189Z,47.76
2024-03-09T05:43:00.047Z,47.59
2024-03-09T05:45:26.907Z,47.58
2024-03-09T05:47:55.572Z,47.48
2024-03-09T05:50:25.422Z,48.76
2024-03-09T05:52:55.328Z,48.05
2024-03-09T05:55:23.162Z,47.51
2024-03-09T05:57:51.648Z,46.62
2024-03-09T06:00:20.940Z,47.07
2024-03-09T06:02:48.262Z,47.01
2024-03-09T06:05:16.769Z,46.86
2024-03-09T06:07:47.849Z,47.10
2024-03-09T06:10:18.747Z,46.52
2024-03-09T06:12:50.517Z,45.59
2024-03-09T06:15:20.700Z,46.40
2024-03-09T06:17:57.168Z,46.02
2024-03-09T06:20:33.210Z,46.53
2024-03-09T06:23:00.002Z,45.37
2024-03-09T06:25:27.595Z,45.96
2024-03-09T06:27:57.026Z,45.67
2024-03-09T06:30:28.968Z,46.28
2024-03-09T06:32:59.833Z,45.37
2024-03-09T06:35:27.266Z,46.71
2024-03-09T06:38:00.766Z,45.07
2024-03-09T06:40:32.940Z,45.53
2024-03-09T06:43:01.412Z,46.71
2024-03-09T06:45:29.335Z,44.77
2024-03-09T06:48:00.444Z,44.74
2024-03-09T06:50:28.718Z,44.62
2024-03-09T06:52:56.385Z,44.92
2024-03-09T06:55:30.433Z,44.19
2024-03-09T06:58:02.841Z,43.84
2024-03-09T07:00:31.629Z,44.99
2024-03-09T07:03:02.112Z,44.22
2024-03-09T07:05:31.766Z,44.10
2024-03-09T07:08:02.074Z,44.59
2024-03-09T07:10:30.178Z,44.58
2024-03-09T07:12:58.342Z,46.16
2024-03-09T07:15:30.696Z,44.30
2024-03-09T07:17:58.231Z,43.48
2024-03-09T07:20:27.396Z,43.11
2024-03-09T07:22:54.966Z,43.09
2024-03-09T07:25:25.935Z,42.67
2024-03-09T07:27:57.893Z,43.05
2024-03-09T07:30:26.032Z,42.95
2024-03-09T07:32:55.829Z,41.82
2024-03-09T07:35:29.034Z,42.81
2024-03-09T07:38:00.009Z,42.10
2024-03-09T07:40:27.967Z,41.53
2024-03-09T07:42:55.223Z,41.25
2024-03-09T07:45:31.336Z,41.57
2024-03-09T07:48:00.717Z,41.75
2024-03-09T07:50:28.941Z,41.43
2024-03-09T07:52:57.637Z,41.64
2024-03-09T07:55:27.319Z,41.18
2024-03-09T07:58:05.175Z,42.70
2024-03-09T08:00:40.782Z,41.83
2024-03-09T08:03:07.490Z,42.65
2024-03-09T08:05:34.398Z,42.18
2024-03-09T08:08:04.538Z,41.13
2024-03-09T08:10:33.388Z,41.82
2024-03-09T08:13:00.571Z,42.39
2024-03-09T08:15:30.189Z,40.60
2024-03-09T08:18:00.268Z,41.22
2024-03-09T08:20:28.028Z,40.97
2024-03-09T08:22:55.793Z,40.20
2024-03-09T08:25:26.853Z,39.45
2024-03-09T08:27:53.698Z,39.81
2024-03-09T08:30:20.547Z,38.79
2024-03-09T08:32:49.298Z,38.97
2024-03-09T08:35:18.099Z,38.32
2024-03-09T08:37:46.490Z,37.99
2024-03-09T08:40:18.527Z,38.65
2024-03-09T08:42:53.390Z,37.78
2024-03-09T08:45:24.772Z,37.99
2024-03-09T08:47:53.335Z,36.77
2024-03-09T08:50:22.973Z,37.10
2024-03-09T08:52:50.544Z,36.71
2024-03-09T08:55:18.480Z,36.55
2024-03-09T08:57:47.617Z,36.34
2024-03-09T09:00:16.742Z,35.74
2024-03-09T09:02:43.738Z,36.24
2024-03-09T09:05:13.664Z,35.38
2024-03-09T09:07:42.129Z,35.69
2024-03-09T09:10:12.145Z,35.94
2024-03-09T09:12:40.629Z,35.42
2024-03-09T09:15:17.998Z,36.11
2024-03-09T09:17:45.266Z,36.63
2024-03-09T09:20:15.308Z,36.70
2024-03-09T09:22:44.681Z,36.35
2024-03-09T09:25:14.584Z,36.89
2024-03-09T09:27:42.001Z,37.94
2024-03-09T09:30:10.713Z,37.84
2024-03-09T09:32:39.453Z,36.20
2024-03-09T09:35:06.610Z,35.59
2024-03-09T09:37:35.137Z,34.33
2024-03-09T09:40:06.200Z,34.92
2024-03-09T09:42:33.550Z,33.61
2024-03-09T09:45:01.595Z,34.28
2024-03-09T09:47:30.491Z,32.38
2024-03-09T09:49:58.657Z,31.93
2024-03-09T09:52:26.391Z,31.96
2024-03-09T09:54:57.850Z,31.09
2024-03-09T09:57:26.488Z,30.88
2024-03-09T09:59:53.709Z,30.49
2024-03-09T10:02:24.254Z,30.25
2024-03-09T10:04:51.886Z,30.65
2024-03-09T10:07:18.909Z,30.68
2024-03-09T10:09:48.301Z,30.47
2024-03-09T10:12:23.650Z,30.56
2024-03-09T10:14:51.412Z,30.56
2024-03-09T10:17:21.779Z,30.22
2024-03-09T10:19:53.909Z,30.52
2024-03-09T10:22:22.204Z,30.41
2024-03-09T10:24:57.437Z,31.66
2024-03-09T10:27:28.532Z,31.10
2024-03-09T10:30:11.408Z,30.78
2024-03-09T10:32:43.346Z,31.10
2024-03-09T10:35:12.574Z,31.71
2024-03-09T10:37:40.776Z,31.49
2024-03-09T10:40:13.688Z,30.78
2024-03-09T10:42:47.078Z,30.79
2024-03-09T10:45:17.127Z,29.53
2024-03-09T10:47:52.104Z,30.73
2024-03-09T10:50:27.385Z,30.68
2024-03-09T10:53:09.438Z,30.68
2024-03-09T10:55:49.835Z,32.63
2024-03-09T10:58:18.542Z,30.70
2024-03-09T11:00:51.088Z,29.58
2024-03-09T11:03:24.371Z,28.95
2024-03-09T11:05:54.565Z,28.97
2024-03-09T11:08:24.138Z,28.86
2024-03-09T11:10:51.997Z,28.55
2024-03-09T11:13:20.573Z,27.51
2024-03-09T11:15:53.720Z,26.24
2024-03-09T11:18:22.849Z,26.03
2024-03-09T11:21:03.955Z,25.34
2024-03-09T11:23:37.544Z,25.17
2024-03-09T11:26:05.250Z,24.46
2024-03-09T11:28:44.328Z,24.55
2024-03-09T11:31:15.513Z,24.84
2024-03-09T11:33:48.559Z,24.87
2024-03-09T11:36:38.736Z,25.12
2024-03-09T11:39:06.011Z,24.56
2024-03-09T11:41:37.135Z,24.08
2024-03-09T11:44:07.588Z,23.70
2024-03-09T11:46:38.116Z,23.63
2024-03-09T11:49:06.083Z,23.26
2024-03-09T11:51:37.427Z,22.99
2024-03-09T11:54:10.028Z,23.41
2024-03-09T11:56:38.164Z,23.33
2024-03-09T11:59:08.007Z,23.17
2024-03-09T12:01:38.412Z,22.76
2024-03-09T12:04:06.941Z,23.05
2024-03-09T12:06:34.575Z,23.84
2024-03-09T12:09:01.845Z,23.47
2024-03-09T12:11:31.140Z,22.90
2024-03-09T12:13:58.783Z,22.92
2024-03-09T12:16:28.231Z,23.32
2024-03-09T12:19:01.077Z,22.67
2024-03-09T12:21:30.740Z,22.87
2024-03-09T12:24:02.162Z,21.88
2024-03-09T12:26:33.051Z,20.82
2024-03-09T12:29:06.313Z,20.82
2024-03-09T12:31:35.166Z,20.50
2024-03-09T12:34:08.886Z,20.49
2024-03-09T12:36:35.741Z,20.33
2024-03-09T12:39:16.658Z,20.35
2024-03-09T12:41:48.662Z,20.23
2024-03-09T12:44:15.555Z,19.85
2024-03-09T12:46:42.528Z,19.88
2024-03-09T12:49:13.137Z,20.02
2024-03-09T12:51:52.214Z,20.07
2024-03-09T12:54:20.665Z,19.70
2024-03-09T12:56:50.800Z,20.27
2024-03-09T12:59:28.249Z,20.52
2024-03-09T13:01:56.296Z,20.57
2024-03-09T13:04:27.831Z,20.63
2024-03-09T13:06:58.108Z,20.72
2024-03-09T13:09:32.779Z,20.92
2024-03-09T13:12:01.030Z,20.22
2024-03-09T13:14:38.667Z,19.85
2024-03-09T13:17:06.875Z,20.16
2024-03-09T13:19:35.105Z,19.84
2024-03-09T13:22:04.067Z,19.70
2024-03-09T13:24:31.889Z,20.08
2024-03-09T13:26:58.819Z,20.06
2024-03-09T13:29:30.261Z,19.70
2024-03-09T13:31:58.440Z,19.77
2024-03-09T13:34:27.476Z,20.15
2024-03-09T13:36:54.959Z,20.02
2024-03-09T13:39:28.845Z,19.64
2024-03-09T13:41:56.002Z,19.10
2024-03-09T13:44:25.667Z,18.86
2024-03-09T13:46:53.301Z,18.92
2024-03-09T13:49:20.622Z,19.14
2024-03-09T13:51:48.317Z,19.82
2024-03-09T13:54:19.031Z,20.11
2024-03-09T13:56:46.551Z,19.39
2024-03-09T13:59:17.057Z,18.78
2024-03-09T14:01:45.373Z,18.42
2024-03-09T14:04:13.764Z,17.72
2024-03-09T14:06:56.242Z,18.31
2024-03-09T14:09:33.373Z,18.53
2024-03-09T14:12:01.240Z,18.71
2024-03-09T14:14:28.919Z,18.19
2024-03-09T14:16:56.907Z,18.83
2024-03-09T14:19:23.608Z,17.97
2024-03-09T14:21:51.927Z,18.85
2024-03-09T14:24:19.551Z,18.75
2024-03-09T14:26:46.891Z,21.57
2024-03-09T14:29:16.360Z,21.06
2024-03-09T14:31:47.743Z,19.93
2024-03-09T14:34:15.040Z,19.14
2024-03-09T14:36:41.749Z,18.86
2024-03-09T14:39:17.689Z,18.77
2024-03-09T14:41:44.762Z,18.90
2024-03-09T14:44:11.511Z,19.71
2024-03-09T14:46:38.329Z,18.90
2024-03-09T14:49:09.470Z,19.50
2024-03-09T14:51:36.540Z,19.31
2024-03-09T14:54:03.311Z,19.72
2024-03-09T14:56:30.104Z,19.86
2024-03-09T14:58:57.335Z,20.08
2024-03-09T15:01:27.079Z,20.08
2024-03-09T15:03:55.431Z,20.48
2024-03-09T15:06:23.569Z,20.06
2024-03-09T15:08:56.679Z,20.24
2024-03-09T15:11:23.565Z,19.59
2024-03-09T15:13:55.006Z,20.42
2024-03-09T15:16:27.689Z,20.68
2024-03-09T15:18:54.962Z,20.44
2024-03-09T15:21:24.281Z,20.49
2024-03-09T15:23:59.559Z,20.47
2024-03-09T15:26:30.115Z,21.66
2024-03-09T15:28:59.061Z,22.10
2024-03-09T15:31:27.811Z,21.85
2024-03-09T15:33:56.265Z,21.86
2024-03-09T15:36:24.935Z,21.26
2024-03-09T15:38:55.372Z,20.64
2024-03-09T15:41:22.377Z,20.45
2024-03-09T15:43:50.184Z,20.68
2024-03-09T15:46:18.989Z,20.43
2024-03-09T15:48:46.793Z,20.02
2024-03-09T15:51:13.630Z,20.09
2024-03-09T15:53:41.735Z,20.04
2024-03-09T15:56:10.830Z,20.76
2024-03-09T15:58:41.606Z,20.85
2024-03-09T16:01:09.265Z,21.23
2024-03-09T16:03:37.222Z,20.98
2024-03-09T16:06:04.440Z,20.63
2024-03-09T16:08:31.609Z,20.84
2024-03-09T16:10:59.036Z,21.14
2024-03-09T16:13:26.061Z,21.08
2024-03-09T16:15:52.742Z,20.82
2024-03-09T16:18:19.605Z,21.53
2024-03-09T16:20:46.573Z,22.66
2024-03-09T16:23:17.037Z,22.06
2024-03-09T16:25:49.320Z,21.83
2024-03-09T16:28:17.642Z,21.49
2024-03-09T16:30:45.171Z,22.12
2024-03-09T16:33:12.655Z,21.49
2024-03-09T16:35:48.813Z,22.11
2024-03-09T16:38:25.593Z,22.08
2024-03-09T16:40:57.765Z,23.00
2024-03-09T16:43:33.097Z,23.79
2024-03-09T16:46:06.859Z,25.24
2024-03-09T16:48:38.094Z,24.96
2024-03-09T16:51:09.521Z,25.83
2024-03-09T16:53:39.734Z,27.06
2024-03-09T16:56:07.310Z,26.43
2024-03-09T16:58:34.130Z,27.43
2024-03-09T17:01:05.793Z,27.63
2024-03-09T17:03:34.006Z,26.76
2024-03-09T17:06:03.522Z,27.62
2024-03-09T17:08:30.621Z,27.11
2024-03-09T17:10:58.931Z,27.83
2024-03-09T17:13:25.817Z,28.17
2024-03-09T17:15:52.639Z,28.78
2024-03-09T17:18:22.770Z,29.22
2024-03-09T17:20:53.653Z,29.31
2024-03-09T17:23:22.076Z,30.41
2024-03-09T17:25:49.540Z,30.42
2024-03-09T17:28:21.357Z,30.04
2024-03-09T17:30:49.851Z,29.39
2024-03-09T17:33:17.257Z,30.24
2024-03-09T17:35:44.078Z,29.17
2024-03-09T17:38:11.647Z,29.71
2024-03-09T17:40:38.817Z,29.56
2024-03-09T17:43:05.697Z,29.16
2024-03-09T17:45:33.177Z,29.11
2024-03-09T17:48:00.621Z,28.78
2024-03-09T17:50:28.641Z,29.02
2024-03-09T17:53:00.145Z,28.43
2024-03-09T17:55:30.705Z,29.57
2024-03-09T17:58:09.241Z,29.23
2024-03-09T18:00:37.334Z,29.10
2024-03-09T18:03:06.030Z,29.30
2024-03-09T18:05:40.983Z,28.91
2024-03-09T18:08:13.468Z,28.77
2024-03-09T18:10:42.536Z,28.94
2024-03-09T18:13:12.009Z,29.51
2024-03-09T18:15:40.960Z,28.74
2024-03-09T18:18:12.113Z,28.88
2024-03-09T18:20:43.212Z,29.66
2024-03-09T18:23:11.373Z,29.48
2024-03-09T18:25:38.912Z,29.93
2024-03-09T18:28:08.992Z,28.86
2024-03-09T18:30:36.374Z,28.53
2024-03-09T18:33:07.908Z,28.91
2024-03-09T18:35:35.447Z,28.07
2024-03-09T18:38:03.569Z,28.54
2024-03-09T18:40:30.485Z,28.68
2024-03-09T18:43:01.051Z,28.78
2024-03-09T18:45:33.992Z,28.26
2024-03-09T18:48:01.701Z,28.34
2024-03-09T18:50:28.531Z,27.62
2024-03-09T18:52:59.256Z,28.53
2024-03-09T18:55:31.052Z,28.32
2024-03-09T18:58:00.745Z,28.53
2024-03-09T19:00:32.752Z,29.22
2024-03-09T19:03:01.846Z,28.80
2024-03-09T19:05:29.353Z,28.72
2024-03-09T19:07:57.650Z,28.28
2024-03-09T19:10:24.999Z,29.27
2024-03-09T19:12:52.550Z,28.50
2024-03-09T19:15:20.760Z,28.84
2024-03-09T19:17:50.907Z,29.51
2024-03-09T19:20:28.176Z,28.54
2024-03-09T19:22:56.354Z,27.87
2024-03-09T19:25:23.535Z,28.17
2024-03-09T19:27:53.303Z,27.32
2024-03-09T19:30:22.689Z,28.50
2024-03-09T19:32:51.733Z,28.14
2024-03-09T19:35:23.185Z,28.09
2024-03-09T19:37:50.822Z,28.03
2024-03-09T19:40:18.976Z,27.85
2024-03-09T19:42:48.494Z,28.23
2024-03-09T19:45:19.058Z,28.31
2024-03-09T19:47:49.851Z,27.66
2024-03-09T19:50:17.269Z,28.25
2024-03-09T19:52:48.003Z,28.10
2024-03-09T19:55:20.527Z,28.40
2024-03-09T19:57:48.777Z,28.71
2024-03-09T20:00:24.919Z,28.78
2024-03-09T20:02:53.777Z,29.29
2024-03-09T20:05:26.085Z,29.05
2024-03-09T20:07:57.001Z,29.38
2024-03-09T20:10:26.021Z,28.28
2024-03-09T20:12:54.699Z,28.95
2024-03-09T20:15:22.220Z,28.70
2024-03-09T20:17:57.061Z,29.33
2024-03-09T20:20:25.864Z,28.82
2024-03-09T20:22:58.209Z,28.58
2024-03-09T20:25:25.769Z,29.82
2024-03-09T20:27:52.623Z,29.43
2024-03-09T20:30:20.934Z,30.15
2024-03-09T20:32:48.925Z,29.22
2024-03-09T20:35:19.672Z,29.14
2024-03-09T20:37:48.571Z,29.32
2024-03-09T20:40:20.962Z,29.38
2024-03-09T20:42:50.165Z,29.03
2024-03-09T20:45:18.367Z,29.12
2024-03-09T20:47:46.336Z,29.19
2024-03-09T20:50:15.435Z,29.42
2024-03-09T20:52:43.829Z,29.01
2024-03-09T20:55:12.155Z,28.40
2024-03-09T20:57:39.224Z,28.64
2024-03-09T21:00:11.162Z,27.44
2024-03-09T21:02:43.086Z,28.86
2024-03-09T21:05:14.063Z,28.40
2024-03-09T21:07:44.278Z,28.67
2024-03-09T21:10:11.189Z,29.36
2024-03-09T21:12:39.374Z,28.96
2024-03-09T21:15:07.440Z,28.33
2024-03-09T21:17:35.394Z,28.43
2024-03-09T21:20:13.001Z,28.76
2024-03-09T21:22:40.346Z,29.00
2024-03-09T21:25:11.462Z,28.52
2024-03-09T21:27:45.520Z,29.14
2024-03-09T21:30:15.583Z,29.01
2024-03-09T21:32:47.193Z,28.80
2024-03-09T21:35:14.846Z,29.01
2024-03-09T21:37:47.137Z,29.09
2024-03-09T21:40:14.803Z,29.81
2024-03-09T21:42:44.244Z,29.02
2024-03-09T21:45:12.629Z,28.98
2024-03-09T21:47:40.311Z,29.30
2024-03-09T21:50:07.620Z,29.07
2024-03-09T21:52:34.756Z,29.99
2024-03-09T21:55:01.562Z,29.41
2024-03-09T21:57:28.418Z,28.43
2024-03-09T21:59:55.191Z,29.42
2024-03-09T22:02:22.274Z,29.80
2024-03-09T22:04:49.161Z,29.68
2024-03-09T22:07:15.904Z,29.01
2024-03-09T22:09:42.747Z,29.86
2024-03-09T22:12:12.031Z,29.77
2024-03-09T22:14:39.923Z,28.72
2024-03-09T22:17:07.723Z,29.90
2024-03-09T22:19:34.566Z,29.71
2024-03-09T22:22:01.913Z,29.86
2024-03-09T22:24:28.680Z,29.82
2024-03-09T22:26:56.414Z,29.79
2024-03-09T22:29:23.781Z,30.20
2024-03-09T22:31:50.747Z,30.01
2024-03-09T22:34:17.508Z,30.44
2024-03-09T22:36:44.552Z,29.79
2024-03-09T22:39:13.142Z,29.80
2024-03-09T22:41:39.928Z,30.15
2024-03-09T22:44:07.662Z,30.34
2024-03-09T22:46:35.736Z,29.98
2024-03-09T22:49:06.021Z,29.88
2024-03-09T22:51:34.095Z,28.78
2024-03-09T22:54:01.963Z,29.32
2024-03-09T22:56:28.938Z,28.95
2024-03-09T22:58:56.184Z,28.95
2024-03-09T23:01:26.537Z,28.91
2024-03-09T23:03:56.859Z,29.10
2024-03-09T23:06:23.661Z,29.58
2024-03-09T23:08:50.392Z,28.99
2024-03-09T23:11:19.300Z,29.08
2024-03-09T23:13:47.889Z,29.12
2024-03-09T23:16:15.348Z,29.94
2024-03-09T23:18:42.496Z,29.71
2024-03-09T23:21:09.557Z,30.13
2024-03-09T23:23:36.362Z,29.89
2024-03-09T23:26:03.234Z,28.62
2024-03-09T23:28:30.213Z,30.09
2024-03-09T23:30:56.954Z,29.34
2024-03-09T23:33:24.414Z,29.46
2024-03-09T23:35:51.154Z,30.16
2024-03-09T23:38:19.243Z,30.38
2024-03-09T23:40:46.020Z,29.79
2024-03-09T23:43:12.842Z,29.95
2024-03-09T23:45:39.797Z,29.59
2024-03-09T23:48:06.949Z,29.00
2024-03-09T23:50:34.063Z,29.69
2024-03-09T23:53:00.904Z,29.44
2024-03-09T23:55:29.689Z,29.69
2024-03-09T23:57:56.540Z,29.21
